Cruzeiro, Brazil
Current Conditions -  °F | °C
As of 3:00 PM on Saturday 25 Oct 2014 (Local Time) from SBGW Reporting Station
Broken Clouds Broken Clouds  
Wind Chill: 79°   Ceiling: 10000
Heat Index: 80°   Visibility: 5mi
Dew Point: 63°   Wind: 2mph
Humidity: 57%   Direction: NA
Pressure: 29.94"   Gusts: NA
Location:  22.58°S, 44.96°W
Report Text: SBGW 251700Z VRB02KT 8000 FEW030 BKN100 26/17 Q1014
Loading
Personal Weather Stations






























Interactive Weather Map
Tropical Storm Tracking
New forecast layout! Learn more

10-Day Weather Forecast

Advertisements
Track Severe Weather on mobile